sensor_id;sensor_type;location;lat;lon;timestamp;pressure;altitude;pressure_sealevel;temperature
65823;BMP180;52585;47.566;19.056;2023-02-11T00:01:49;102343.20;;;0.86
65823;BMP180;52585;47.566;19.056;2023-02-11T00:04:15;102338.00;;;0.80
65823;BMP180;52585;47.566;19.056;2023-02-11T00:06:41;102338.20;;;0.80
65823;BMP180;52585;47.566;19.056;2023-02-11T00:09:08;102337.00;;;0.70
65823;BMP180;52585;47.566;19.056;2023-02-11T00:11:34;102332.20;;;0.70
65823;BMP180;52585;47.566;19.056;2023-02-11T00:14:05;102333.20;;;0.68
65823;BMP180;52585;47.566;19.056;2023-02-11T00:16:32;102328.80;;;0.60
65823;BMP180;52585;47.566;19.056;2023-02-11T00:19:00;102328.20;;;0.60
65823;BMP180;52585;47.566;19.056;2023-02-11T00:21:26;102326.80;;;0.60
65823;BMP180;52585;47.566;19.056;2023-02-11T00:23:53;102322.60;;;0.60
65823;BMP180;52585;47.566;19.056;2023-02-11T00:26:35;102324.00;;;0.54
65823;BMP180;52585;47.566;19.056;2023-02-11T00:29:03;102320.20;;;0.50
65823;BMP180;52585;47.566;19.056;2023-02-11T00:31:29;102317.80;;;0.50
65823;BMP180;52585;47.566;19.056;2023-02-11T00:33:55;102318.80;;;0.40
65823;BMP180;52585;47.566;19.056;2023-02-11T00:36:27;102312.00;;;0.40
65823;BMP180;52585;47.566;19.056;2023-02-11T00:38:54;102317.60;;;0.30
65823;BMP180;52585;47.566;19.056;2023-02-11T00:41:22;102318.20;;;0.30
65823;BMP180;52585;47.566;19.056;2023-02-11T00:43:48;102323.20;;;0.20
65823;BMP180;52585;47.566;19.056;2023-02-11T00:46:15;102321.80;;;0.20
65823;BMP180;52585;47.566;19.056;2023-02-11T00:48:41;102320.20;;;0.14
65823;BMP180;52585;47.566;19.056;2023-02-11T00:51:07;102314.00;;;0.10
65823;BMP180;52585;47.566;19.056;2023-02-11T00:53:33;102310.00;;;0.10
65823;BMP180;52585;47.566;19.056;2023-02-11T00:55:59;102308.00;;;0.04
65823;BMP180;52585;47.566;19.056;2023-02-11T00:58:26;102310.60;;;0.00
65823;BMP180;52585;47.566;19.056;2023-02-11T01:00:56;102300.80;;;0.00
65823;BMP180;52585;47.566;19.056;2023-02-11T01:03:21;102300.20;;;-0.10
65823;BMP180;52585;47.566;19.056;2023-02-11T01:05:47;102292.80;;;-0.10
65823;BMP180;52585;47.566;19.056;2023-02-11T01:08:13;102283.60;;;-0.10
65823;BMP180;52585;47.566;19.056;2023-02-11T01:10:41;102280.00;;;-0.10
65823;BMP180;52585;47.566;19.056;2023-02-11T01:13:08;102280.80;;;-0.20
65823;BMP180;52585;47.566;19.056;2023-02-11T01:15:34;102286.20;;;-0.20
65823;BMP180;52585;47.566;19.056;2023-02-11T01:18:00;102277.40;;;-0.20
65823;BMP180;52585;47.566;19.056;2023-02-11T01:20:28;102263.80;;;-0.26
65823;BMP180;52585;47.566;19.056;2023-02-11T01:22:54;102267.20;;;-0.30
65823;BMP180;52585;47.566;19.056;2023-02-11T01:25:20;102264.80;;;-0.30
65823;BMP180;52585;47.566;19.056;2023-02-11T01:27:45;102262.60;;;-0.32
65823;BMP180;52585;47.566;19.056;2023-02-11T01:30:13;102259.00;;;-0.40
65823;BMP180;52585;47.566;19.056;2023-02-11T01:32:39;102259.80;;;-0.40
65823;BMP180;52585;47.566;19.056;2023-02-11T01:35:06;102255.80;;;-0.44
65823;BMP180;52585;47.566;19.056;2023-02-11T01:37:33;102253.20;;;-0.50
65823;BMP180;52585;47.566;19.056;2023-02-11T01:40:01;102249.40;;;-0.50
65823;BMP180;52585;47.566;19.056;2023-02-11T01:42:28;102248.00;;;-0.50
65823;BMP180;52585;47.566;19.056;2023-02-11T01:44:56;102248.60;;;-0.50
65823;BMP180;52585;47.566;19.056;2023-02-11T01:47:22;102249.00;;;-0.50
65823;BMP180;52585;47.566;19.056;2023-02-11T01:49:56;102252.00;;;-0.52
65823;BMP180;52585;47.566;19.056;2023-02-11T01:52:34;102251.60;;;-0.60
65823;BMP180;52585;47.566;19.056;2023-02-11T01:55:08;102251.00;;;-0.60
65823;BMP180;52585;47.566;19.056;2023-02-11T01:57:58;102251.80;;;-0.60
65823;BMP180;52585;47.566;19.056;2023-02-11T02:00:36;102247.60;;;-0.60
65823;BMP180;52585;47.566;19.056;2023-02-11T02:03:21;102247.80;;;-0.68
65823;BMP180;52585;47.566;19.056;2023-02-11T02:06:06;102244.00;;;-0.70
65823;BMP180;52585;47.566;19.056;2023-02-11T02:08:43;102243.20;;;-0.70
65823;BMP180;52585;47.566;19.056;2023-02-11T02:11:11;102246.00;;;-0.70
65823;BMP180;52585;47.566;19.056;2023-02-11T02:13:37;102244.60;;;-0.70
65823;BMP180;52585;47.566;19.056;2023-02-11T02:16:12;102247.00;;;-0.70
65823;BMP180;52585;47.566;19.056;2023-02-11T02:33:19;102253.20;;;-0.78
65823;BMP180;52585;47.566;19.056;2023-02-11T02:36:21;102241.60;;;-0.80
65823;BMP180;52585;47.566;19.056;2023-02-11T02:39:11;102232.40;;;-0.80
65823;BMP180;52585;47.566;19.056;2023-02-11T02:41:41;102227.60;;;-0.80
65823;BMP180;52585;47.566;19.056;2023-02-11T02:44:07;102228.60;;;-0.80
65823;BMP180;52585;47.566;19.056;2023-02-11T02:46:35;102226.60;;;-0.84
65823;BMP180;52585;47.566;19.056;2023-02-11T02:49:02;102230.80;;;-0.90
65823;BMP180;52585;47.566;19.056;2023-02-11T02:51:57;102231.80;;;-0.90
65823;BMP180;52585;47.566;19.056;2023-02-11T03:03:23;102225.00;;;-0.98
65823;BMP180;52585;47.566;19.056;2023-02-11T03:06:02;102219.80;;;-1.00
65823;BMP180;52585;47.566;19.056;2023-02-11T03:11:36;102223.80;;;-1.00
65823;BMP180;52585;47.566;19.056;2023-02-11T03:14:08;102222.40;;;-1.00
65823;BMP180;52585;47.566;19.056;2023-02-11T03:16:36;102217.40;;;-1.00
65823;BMP180;52585;47.566;19.056;2023-02-11T03:19:13;102214.80;;;-1.00
65823;BMP180;52585;47.566;19.056;2023-02-11T03:21:41;102208.40;;;-1.00
65823;BMP180;52585;47.566;19.056;2023-02-11T03:24:19;102205.00;;;-1.00
65823;BMP180;52585;47.566;19.056;2023-02-11T03:26:57;102202.40;;;-1.00
65823;BMP180;52585;47.566;19.056;2023-02-11T03:29:38;102194.40;;;-1.02
65823;BMP180;52585;47.566;19.056;2023-02-11T03:32:12;102194.40;;;-1.00
65823;BMP180;52585;47.566;19.056;2023-02-11T03:35:02;102187.40;;;-1.00
65823;BMP180;52585;47.566;19.056;2023-02-11T03:40:10;102185.80;;;-1.00
65823;BMP180;52585;47.566;19.056;2023-02-11T03:42:47;102185.60;;;-1.00
65823;BMP180;52585;47.566;19.056;2023-02-11T03:45:18;102187.40;;;-1.00
65823;BMP180;52585;47.566;19.056;2023-02-11T03:48:00;102183.20;;;-1.00
65823;BMP180;52585;47.566;19.056;2023-02-11T03:50:31;102174.80;;;-1.04
65823;BMP180;52585;47.566;19.056;2023-02-11T03:53:00;102166.00;;;-1.10
65823;BMP180;52585;47.566;19.056;2023-02-11T03:55:29;102166.40;;;-1.10
65823;BMP180;52585;47.566;19.056;2023-02-11T03:57:55;102162.40;;;-1.10
65823;BMP180;52585;47.566;19.056;2023-02-11T04:00:34;102161.80;;;-1.10
65823;BMP180;52585;47.566;19.056;2023-02-11T04:03:02;102159.60;;;-1.10
65823;BMP180;52585;47.566;19.056;2023-02-11T04:05:28;102154.80;;;-1.10
65823;BMP180;52585;47.566;19.056;2023-02-11T04:07:54;102143.40;;;-1.18
65823;BMP180;52585;47.566;19.056;2023-02-11T04:10:20;102141.20;;;-1.20
65823;BMP180;52585;47.566;19.056;2023-02-11T04:12:46;102132.00;;;-1.20
65823;BMP180;52585;47.566;19.056;2023-02-11T04:15:12;102130.60;;;-1.24
65823;BMP180;52585;47.566;19.056;2023-02-11T04:17:38;102131.40;;;-1.30
65823;BMP180;52585;47.566;19.056;2023-02-11T04:20:04;102126.40;;;-1.30
65823;BMP180;52585;47.566;19.056;2023-02-11T04:22:30;102124.00;;;-1.30
65823;BMP180;52585;47.566;19.056;2023-02-11T04:24:56;102124.60;;;-1.30
65823;BMP180;52585;47.566;19.056;2023-02-11T04:27:22;102125.00;;;-1.30
65823;BMP180;52585;47.566;19.056;2023-02-11T04:29:47;102128.00;;;-1.30
65823;BMP180;52585;47.566;19.056;2023-02-11T04:32:13;102124.00;;;-1.30
65823;BMP180;52585;47.566;19.056;2023-02-11T04:34:39;102125.20;;;-1.32
65823;BMP180;52585;47.566;19.056;2023-02-11T04:37:06;102129.60;;;-1.38
65823;BMP180;52585;47.566;19.056;2023-02-11T04:39:33;102130.20;;;-1.38
65823;BMP180;52585;47.566;19.056;2023-02-11T04:41:59;102126.80;;;-1.40
65823;BMP180;52585;47.566;19.056;2023-02-11T04:44:25;102125.60;;;-1.40
65823;BMP180;52585;47.566;19.056;2023-02-11T04:46:52;102129.00;;;-1.40
65823;BMP180;52585;47.566;19.056;2023-02-11T04:49:17;102130.00;;;-1.40
65823;BMP180;52585;47.566;19.056;2023-02-11T04:51:43;102128.40;;;-1.32
65823;BMP180;52585;47.566;19.056;2023-02-11T04:54:10;102129.00;;;-1.30
65823;BMP180;52585;47.566;19.056;2023-02-11T04:56:36;102125.40;;;-1.30
65823;BMP180;52585;47.566;19.056;2023-02-11T04:59:02;102127.40;;;-1.30
65823;BMP180;52585;47.566;19.056;2023-02-11T05:01:28;102129.60;;;-1.30
65823;BMP180;52585;47.566;19.056;2023-02-11T05:03:54;102133.20;;;-1.30
65823;BMP180;52585;47.566;19.056;2023-02-11T05:06:20;102131.80;;;-1.34
65823;BMP180;52585;47.566;19.056;2023-02-11T05:08:45;102133.60;;;-1.40
65823;BMP180;52585;47.566;19.056;2023-02-11T05:11:18;102140.20;;;-1.40
65823;BMP180;52585;47.566;19.056;2023-02-11T05:13:45;102135.00;;;-1.40
65823;BMP180;52585;47.566;19.056;2023-02-11T05:16:14;102136.20;;;-1.40
65823;BMP180;52585;47.566;19.056;2023-02-11T05:18:42;102139.20;;;-1.48
65823;BMP180;52585;47.566;19.056;2023-02-11T05:21:12;102137.80;;;-1.48
65823;BMP180;52585;47.566;19.056;2023-02-11T05:23:39;102136.60;;;-1.50
65823;BMP180;52585;47.566;19.056;2023-02-11T05:26:05;102132.40;;;-1.50
65823;BMP180;52585;47.566;19.056;2023-02-11T05:28:31;102120.60;;;-1.50
65823;BMP180;52585;47.566;19.056;2023-02-11T05:30:57;102122.80;;;-1.50
65823;BMP180;52585;47.566;19.056;2023-02-11T05:33:23;102115.40;;;-1.50
65823;BMP180;52585;47.566;19.056;2023-02-11T05:35:49;102112.20;;;-1.56
65823;BMP180;52585;47.566;19.056;2023-02-11T05:38:14;102118.40;;;-1.58
65823;BMP180;52585;47.566;19.056;2023-02-11T05:40:40;102109.60;;;-1.60
65823;BMP180;52585;47.566;19.056;2023-02-11T05:43:06;102101.20;;;-1.60
65823;BMP180;52585;47.566;19.056;2023-02-11T05:45:32;102101.80;;;-1.60
65823;BMP180;52585;47.566;19.056;2023-02-11T05:47:59;102102.40;;;-1.60
65823;BMP180;52585;47.566;19.056;2023-02-11T05:50:25;102102.20;;;-1.60
65823;BMP180;52585;47.566;19.056;2023-02-11T05:52:51;102100.00;;;-1.60
65823;BMP180;52585;47.566;19.056;2023-02-11T05:55:17;102099.40;;;-1.60
65823;BMP180;52585;47.566;19.056;2023-02-11T05:57:42;102102.60;;;-1.60
65823;BMP180;52585;47.566;19.056;2023-02-11T06:00:09;102109.20;;;-1.60
65823;BMP180;52585;47.566;19.056;2023-02-11T06:02:35;102113.60;;;-1.60
65823;BMP180;52585;47.566;19.056;2023-02-11T06:05:01;102114.40;;;-1.60
65823;BMP180;52585;47.566;19.056;2023-02-11T06:07:26;102109.60;;;-1.60
65823;BMP180;52585;47.566;19.056;2023-02-11T06:09:52;102120.40;;;-1.60
65823;BMP180;52585;47.566;19.056;2023-02-11T06:12:17;102112.20;;;-1.60
65823;BMP180;52585;47.566;19.056;2023-02-11T06:14:43;102111.20;;;-1.60
65823;BMP180;52585;47.566;19.056;2023-02-11T06:17:09;102106.20;;;-1.60
65823;BMP180;52585;47.566;19.056;2023-02-11T06:19:34;102101.20;;;-1.60
65823;BMP180;52585;47.566;19.056;2023-02-11T06:22:00;102095.60;;;-1.60
65823;BMP180;52585;47.566;19.056;2023-02-11T06:24:26;102093.80;;;-1.60
65823;BMP180;52585;47.566;19.056;2023-02-11T06:26:51;102088.60;;;-1.60
65823;BMP180;52585;47.566;19.056;2023-02-11T06:29:17;102091.00;;;-1.60
65823;BMP180;52585;47.566;19.056;2023-02-11T06:31:43;102092.60;;;-1.60
65823;BMP180;52585;47.566;19.056;2023-02-11T06:34:09;102095.00;;;-1.62
65823;BMP180;52585;47.566;19.056;2023-02-11T06:36:37;102099.40;;;-1.60
65823;BMP180;52585;47.566;19.056;2023-02-11T06:39:03;102100.20;;;-1.60
65823;BMP180;52585;47.566;19.056;2023-02-11T06:41:29;102097.00;;;-1.60
65823;BMP180;52585;47.566;19.056;2023-02-11T06:43:55;102099.60;;;-1.60
65823;BMP180;52585;47.566;19.056;2023-02-11T06:46:21;102095.40;;;-1.60
65823;BMP180;52585;47.566;19.056;2023-02-11T06:48:47;102097.80;;;-1.56
65823;BMP180;52585;47.566;19.056;2023-02-11T06:51:14;102099.60;;;-1.50
65823;BMP180;52585;47.566;19.056;2023-02-11T06:53:45;102091.20;;;-1.50
65823;BMP180;52585;47.566;19.056;2023-02-11T06:56:19;102088.40;;;-1.50
65823;BMP180;52585;47.566;19.056;2023-02-11T06:58:45;102090.60;;;-1.50
65823;BMP180;52585;47.566;19.056;2023-02-11T07:01:15;102085.80;;;-1.40
65823;BMP180;52585;47.566;19.056;2023-02-11T07:03:43;102091.40;;;-1.40
65823;BMP180;52585;47.566;19.056;2023-02-11T07:06:17;102092.00;;;-1.30
65823;BMP180;52585;47.566;19.056;2023-02-11T07:08:44;102084.60;;;-1.30
65823;BMP180;52585;47.566;19.056;2023-02-11T07:11:18;102090.80;;;-1.26
65823;BMP180;52585;47.566;19.056;2023-02-11T07:13:46;102085.00;;;-1.20
65823;BMP180;52585;47.566;19.056;2023-02-11T07:16:15;102085.20;;;-1.12
65823;BMP180;52585;47.566;19.056;2023-02-11T07:18:43;102085.40;;;-1.10
65823;BMP180;52585;47.566;19.056;2023-02-11T07:21:12;102074.00;;;-1.10
65823;BMP180;52585;47.566;19.056;2023-02-11T07:23:39;102076.20;;;-1.04
65823;BMP180;52585;47.566;19.056;2023-02-11T07:26:12;102081.40;;;-1.00
65823;BMP180;52585;47.566;19.056;2023-02-11T07:28:40;102076.40;;;-1.00
65823;BMP180;52585;47.566;19.056;2023-02-11T07:31:28;102076.60;;;-0.90
65823;BMP180;52585;47.566;19.056;2023-02-11T07:33:58;102074.00;;;-0.90
65823;BMP180;52585;47.566;19.056;2023-02-11T07:36:26;102070.40;;;-0.82
65823;BMP180;52585;47.566;19.056;2023-02-11T07:38:52;102069.40;;;-0.80
65823;BMP180;52585;47.566;19.056;2023-02-11T07:41:20;102068.00;;;-0.70
65823;BMP180;52585;47.566;19.056;2023-02-11T07:43:47;102071.00;;;-0.70
65823;BMP180;52585;47.566;19.056;2023-02-11T07:46:20;102071.80;;;-0.66
65823;BMP180;52585;47.566;19.056;2023-02-11T07:48:46;102065.40;;;-0.60
65823;BMP180;52585;47.566;19.056;2023-02-11T07:51:27;102065.00;;;-0.60
65823;BMP180;52585;47.566;19.056;2023-02-11T07:53:54;102060.00;;;-0.50
65823;BMP180;52585;47.566;19.056;2023-02-11T07:56:21;102060.20;;;-0.50
65823;BMP180;52585;47.566;19.056;2023-02-11T07:58:48;102057.40;;;-0.44
65823;BMP180;52585;47.566;19.056;2023-02-11T08:01:18;102053.00;;;-0.40
65823;BMP180;52585;47.566;19.056;2023-02-11T08:03:43;102045.80;;;-0.30
65823;BMP180;52585;47.566;19.056;2023-02-11T08:06:21;102052.40;;;-0.28
65823;BMP180;52585;47.566;19.056;2023-02-11T08:08:48;102053.60;;;-0.20
65823;BMP180;52585;47.566;19.056;2023-02-11T08:11:23;102053.60;;;-0.10
65823;BMP180;52585;47.566;19.056;2023-02-11T08:13:50;102050.40;;;-0.08
65823;BMP180;52585;47.566;19.056;2023-02-11T08:16:27;102053.20;;;0.00
65823;BMP180;52585;47.566;19.056;2023-02-11T08:18:57;102051.40;;;0.04
65823;BMP180;52585;47.566;19.056;2023-02-11T08:21:23;102048.60;;;0.10
65823;BMP180;52585;47.566;19.056;2023-02-11T08:23:51;102051.20;;;0.10
65823;BMP180;52585;47.566;19.056;2023-02-11T08:26:24;102055.00;;;0.14
65823;BMP180;52585;47.566;19.056;2023-02-11T08:28:52;102056.60;;;0.20
65823;BMP180;52585;47.566;19.056;2023-02-11T08:31:25;102059.20;;;0.20
65823;BMP180;52585;47.566;19.056;2023-02-11T08:33:52;102059.40;;;0.22
65823;BMP180;52585;47.566;19.056;2023-02-11T08:36:22;102069.40;;;0.28
65823;BMP180;52585;47.566;19.056;2023-02-11T08:38:48;102064.00;;;0.30
65823;BMP180;52585;47.566;19.056;2023-02-11T08:41:16;102059.80;;;0.30
65823;BMP180;52585;47.566;19.056;2023-02-11T08:43:44;102055.40;;;0.36
65823;BMP180;52585;47.566;19.056;2023-02-11T08:46:17;102053.20;;;0.40
65823;BMP180;52585;47.566;19.056;2023-02-11T08:48:44;102053.00;;;0.40
65823;BMP180;52585;47.566;19.056;2023-02-11T08:51:24;102053.80;;;0.40
65823;BMP180;52585;47.566;19.056;2023-02-11T08:53:53;102056.60;;;0.50
65823;BMP180;52585;47.566;19.056;2023-02-11T08:56:20;102047.60;;;0.50
65823;BMP180;52585;47.566;19.056;2023-02-11T08:58:46;102043.60;;;0.56
65823;BMP180;52585;47.566;19.056;2023-02-11T09:01:19;102049.20;;;0.60
65823;BMP180;52585;47.566;19.056;2023-02-11T09:03:46;102042.00;;;0.60
65823;BMP180;52585;47.566;19.056;2023-02-11T09:06:13;102040.40;;;0.60
65823;BMP180;52585;47.566;19.056;2023-02-11T09:08:47;102033.20;;;0.68
65823;BMP180;52585;47.566;19.056;2023-02-11T09:11:18;102031.80;;;0.70
65823;BMP180;52585;47.566;19.056;2023-02-11T09:13:45;102033.60;;;0.70
65823;BMP180;52585;47.566;19.056;2023-02-11T09:16:22;102035.60;;;0.78
65823;BMP180;52585;47.566;19.056;2023-02-11T09:18:49;102026.60;;;0.80
65823;BMP180;52585;47.566;19.056;2023-02-11T09:21:16;102023.40;;;0.86
65823;BMP180;52585;47.566;19.056;2023-02-11T09:23:42;102024.60;;;0.90
65823;BMP180;52585;47.566;19.056;2023-02-11T09:26:17;102021.40;;;1.00
65823;BMP180;52585;47.566;19.056;2023-02-11T09:28:43;102022.00;;;1.08
65823;BMP180;52585;47.566;19.056;2023-02-11T09:31:12;102017.40;;;1.10
65823;BMP180;52585;47.566;19.056;2023-02-11T09:33:40;102017.00;;;1.20
65823;BMP180;52585;47.566;19.056;2023-02-11T09:36:15;102018.40;;;1.30
65823;BMP180;52585;47.566;19.056;2023-02-11T09:38:42;102017.60;;;1.40
65823;BMP180;52585;47.566;19.056;2023-02-11T09:44:32;102015.20;;;1.50
65823;BMP180;52585;47.566;19.056;2023-02-11T09:47:03;102010.60;;;1.60
65823;BMP180;52585;47.566;19.056;2023-02-11T09:49:40;102008.40;;;1.62
65823;BMP180;52585;47.566;19.056;2023-02-11T09:52:38;102001.20;;;1.70
65823;BMP180;52585;47.566;19.056;2023-02-11T09:55:23;102002.00;;;1.80
65823;BMP180;52585;47.566;19.056;2023-02-11T09:57:51;101999.40;;;1.90
65823;BMP180;52585;47.566;19.056;2023-02-11T10:08:55;101992.20;;;2.20
65823;BMP180;52585;47.566;19.056;2023-02-11T10:11:40;101999.80;;;2.28
65823;BMP180;52585;47.566;19.056;2023-02-11T10:20:35;101986.00;;;2.40
65823;BMP180;52585;47.566;19.056;2023-02-11T10:25:44;101976.40;;;2.50
65823;BMP180;52585;47.566;19.056;2023-02-11T10:28:21;101975.80;;;2.50
65823;BMP180;52585;47.566;19.056;2023-02-11T10:31:06;101966.00;;;2.56
65823;BMP180;52585;47.566;19.056;2023-02-11T10:35:59;101961.80;;;2.60
65823;BMP180;52585;47.566;19.056;2023-02-11T10:38:26;101961.20;;;2.70
65823;BMP180;52585;47.566;19.056;2023-02-11T10:40:52;101950.60;;;2.70
65823;BMP180;52585;47.566;19.056;2023-02-11T10:43:23;101947.80;;;2.80
65823;BMP180;52585;47.566;19.056;2023-02-11T10:45:53;101938.00;;;2.80
65823;BMP180;52585;47.566;19.056;2023-02-11T10:48:46;101932.40;;;2.90
65823;BMP180;52585;47.566;19.056;2023-02-11T10:51:30;101923.60;;;2.92
65823;BMP180;52585;47.566;19.056;2023-02-11T10:56:44;101923.60;;;3.00
65823;BMP180;52585;47.566;19.056;2023-02-11T10:59:30;101921.60;;;3.10
65823;BMP180;52585;47.566;19.056;2023-02-11T11:02:21;101918.80;;;3.20
65823;BMP180;52585;47.566;19.056;2023-02-11T11:04:48;101910.80;;;3.20
65823;BMP180;52585;47.566;19.056;2023-02-11T11:07:22;101906.00;;;3.30
65823;BMP180;52585;47.566;19.056;2023-02-11T11:10:10;101904.60;;;3.30
65823;BMP180;52585;47.566;19.056;2023-02-11T11:12:50;101896.20;;;3.40
65823;BMP180;52585;47.566;19.056;2023-02-11T11:15:21;101893.20;;;3.40
65823;BMP180;52585;47.566;19.056;2023-02-11T11:18:14;101894.60;;;3.40
65823;BMP180;52585;47.566;19.056;2023-02-11T11:21:00;101902.60;;;3.60
65823;BMP180;52585;47.566;19.056;2023-02-11T11:23:29;101892.80;;;3.64
65823;BMP180;52585;47.566;19.056;2023-02-11T11:26:15;101888.40;;;3.70
65823;BMP180;52585;47.566;19.056;2023-02-11T11:29:08;101877.40;;;3.72
65823;BMP180;52585;47.566;19.056;2023-02-11T11:31:52;101877.20;;;3.80
65823;BMP180;52585;47.566;19.056;2023-02-11T11:34:30;101874.00;;;3.90
65823;BMP180;52585;47.566;19.056;2023-02-11T11:36:59;101868.80;;;3.98
65823;BMP180;52585;47.566;19.056;2023-02-11T11:39:31;101863.80;;;4.00
65823;BMP180;52585;47.566;19.056;2023-02-11T11:42:01;101861.80;;;4.08
65823;BMP180;52585;47.566;19.056;2023-02-11T11:44:35;101861.00;;;4.10
65823;BMP180;52585;47.566;19.056;2023-02-11T11:50:14;101852.80;;;4.10
65823;BMP180;52585;47.566;19.056;2023-02-11T11:56:14;101853.00;;;4.20
65823;BMP180;52585;47.566;19.056;2023-02-11T11:58:41;101843.40;;;4.20
65823;BMP180;52585;47.566;19.056;2023-02-11T12:10:33;101813.00;;;4.30
65823;BMP180;52585;47.566;19.056;2023-02-11T12:19:30;101796.00;;;4.40
65823;BMP180;52585;47.566;19.056;2023-02-11T12:25:26;101787.20;;;4.50
65823;BMP180;52585;47.566;19.056;2023-02-11T12:34:06;101769.60;;;4.54
65823;BMP180;52585;47.566;19.056;2023-02-11T12:39:39;101764.20;;;4.60
65823;BMP180;52585;47.566;19.056;2023-02-11T12:42:41;101764.80;;;4.62
65823;BMP180;52585;47.566;19.056;2023-02-11T12:57:04;101746.60;;;4.70
65823;BMP180;52585;47.566;19.056;2023-02-11T12:59:49;101745.60;;;4.72
65823;BMP180;52585;47.566;19.056;2023-02-11T13:03:02;101740.40;;;4.78
65823;BMP180;52585;47.566;19.056;2023-02-11T13:05:51;101744.80;;;4.80
65823;BMP180;52585;47.566;19.056;2023-02-11T13:09:00;101746.00;;;4.80
65823;BMP180;52585;47.566;19.056;2023-02-11T13:11:36;101737.00;;;4.90
65823;BMP180;52585;47.566;19.056;2023-02-11T13:14:14;101727.20;;;4.90
65823;BMP180;52585;47.566;19.056;2023-02-11T13:16:45;101728.80;;;4.90
65823;BMP180;52585;47.566;19.056;2023-02-11T13:24:56;101722.40;;;4.90
65823;BMP180;52585;47.566;19.056;2023-02-11T13:30:34;101697.40;;;5.00
65823;BMP180;52585;47.566;19.056;2023-02-11T13:38:30;101701.40;;;5.00
65823;BMP180;52585;47.566;19.056;2023-02-11T13:47:00;101690.00;;;5.04
65823;BMP180;52585;47.566;19.056;2023-02-11T13:49:47;101703.60;;;5.02
65823;BMP180;52585;47.566;19.056;2023-02-11T13:52:34;101704.40;;;5.00
65823;BMP180;52585;47.566;19.056;2023-02-11T13:57:39;101699.40;;;5.08
65823;BMP180;52585;47.566;19.056;2023-02-11T14:14:34;101692.60;;;5.10
65823;BMP180;52585;47.566;19.056;2023-02-11T14:19:40;101686.00;;;5.10
65823;BMP180;52585;47.566;19.056;2023-02-11T14:22:43;101693.60;;;5.10
65823;BMP180;52585;47.566;19.056;2023-02-11T14:25:21;101706.80;;;5.10
65823;BMP180;52585;47.566;19.056;2023-02-11T14:28:22;101715.40;;;5.16
65823;BMP180;52585;47.566;19.056;2023-02-11T14:31:07;101722.20;;;5.20
65823;BMP180;52585;47.566;19.056;2023-02-11T14:33:38;101719.60;;;5.20
65823;BMP180;52585;47.566;19.056;2023-02-11T14:42:24;101723.40;;;5.20
65823;BMP180;52585;47.566;19.056;2023-02-11T14:44:56;101714.20;;;5.20
65823;BMP180;52585;47.566;19.056;2023-02-11T14:48:14;101720.20;;;5.20
65823;BMP180;52585;47.566;19.056;2023-02-11T14:50:52;101716.60;;;5.20
65823;BMP180;52585;47.566;19.056;2023-02-11T14:53:24;101707.40;;;5.28
65823;BMP180;52585;47.566;19.056;2023-02-11T14:55:53;101710.20;;;5.30
65823;BMP180;52585;47.566;19.056;2023-02-11T14:58:28;101700.00;;;5.30
65823;BMP180;52585;47.566;19.056;2023-02-11T15:00:57;101696.60;;;5.30
65823;BMP180;52585;47.566;19.056;2023-02-11T15:03:41;101689.00;;;5.30
65823;BMP180;52585;47.566;19.056;2023-02-11T15:09:03;101678.80;;;5.30
65823;BMP180;52585;47.566;19.056;2023-02-11T15:11:44;101676.60;;;5.30
65823;BMP180;52585;47.566;19.056;2023-02-11T15:14:32;101673.40;;;5.30
65823;BMP180;52585;47.566;19.056;2023-02-11T15:17:04;101669.00;;;5.30
65823;BMP180;52585;47.566;19.056;2023-02-11T15:19:43;101672.00;;;5.30
65823;BMP180;52585;47.566;19.056;2023-02-11T15:22:28;101673.80;;;5.30
65823;BMP180;52585;47.566;19.056;2023-02-11T15:25:16;101683.80;;;5.30
65823;BMP180;52585;47.566;19.056;2023-02-11T15:27:50;101678.60;;;5.30
65823;BMP180;52585;47.566;19.056;2023-02-11T15:30:30;101675.60;;;5.38
65823;BMP180;52585;47.566;19.056;2023-02-11T15:33:01;101671.80;;;5.40
65823;BMP180;52585;47.566;19.056;2023-02-11T15:35:38;101670.20;;;5.40
65823;BMP180;52585;47.566;19.056;2023-02-11T15:38:08;101662.40;;;5.50
65823;BMP180;52585;47.566;19.056;2023-02-11T15:40:36;101659.00;;;5.50
65823;BMP180;52585;47.566;19.056;2023-02-11T15:43:08;101658.60;;;5.50
65823;BMP180;52585;47.566;19.056;2023-02-11T15:46:00;101659.20;;;5.50
65823;BMP180;52585;47.566;19.056;2023-02-11T15:48:48;101654.80;;;5.50
65823;BMP180;52585;47.566;19.056;2023-02-11T15:51:36;101652.00;;;5.50
65823;BMP180;52585;47.566;19.056;2023-02-11T15:54:18;101659.00;;;5.50
65823;BMP180;52585;47.566;19.056;2023-02-11T15:56:50;101652.80;;;5.50
65823;BMP180;52585;47.566;19.056;2023-02-11T15:59:30;101656.20;;;5.50
65823;BMP180;52585;47.566;19.056;2023-02-11T16:02:07;101648.00;;;5.50
65823;BMP180;52585;47.566;19.056;2023-02-11T16:04:35;101646.00;;;5.50
65823;BMP180;52585;47.566;19.056;2023-02-11T16:07:02;101637.80;;;5.42
65823;BMP180;52585;47.566;19.056;2023-02-11T16:09:35;101633.60;;;5.40
65823;BMP180;52585;47.566;19.056;2023-02-11T16:12:26;101633.60;;;5.40
65823;BMP180;52585;47.566;19.056;2023-02-11T16:14:53;101628.60;;;5.40
65823;BMP180;52585;47.566;19.056;2023-02-11T16:17:27;101630.60;;;5.40
65823;BMP180;52585;47.566;19.056;2023-02-11T16:19:54;101623.20;;;5.40
65823;BMP180;52585;47.566;19.056;2023-02-11T16:22:29;101618.80;;;5.38
65823;BMP180;52585;47.566;19.056;2023-02-11T16:25:00;101617.40;;;5.36
65823;BMP180;52585;47.566;19.056;2023-02-11T16:27:40;101617.00;;;5.30
65823;BMP180;52585;47.566;19.056;2023-02-11T16:30:32;101616.20;;;5.30
65823;BMP180;52585;47.566;19.056;2023-02-11T16:32:59;101626.60;;;5.30
65823;BMP180;52585;47.566;19.056;2023-02-11T16:35:25;101621.20;;;5.30
65823;BMP180;52585;47.566;19.056;2023-02-11T16:37:52;101618.60;;;5.30
65823;BMP180;52585;47.566;19.056;2023-02-11T16:40:20;101615.60;;;5.30
65823;BMP180;52585;47.566;19.056;2023-02-11T16:42:53;101615.80;;;5.28
65823;BMP180;52585;47.566;19.056;2023-02-11T16:45:20;101621.80;;;5.26
65823;BMP180;52585;47.566;19.056;2023-02-11T16:47:46;101616.80;;;5.20
65823;BMP180;52585;47.566;19.056;2023-02-11T16:50:23;101611.00;;;5.20